Meeteetse, Wyoming
Current Conditions -  °F | °C
As of 2:35 PM on Saturday 20 Dec 2014 (Local Time) from KCOD Reporting Station
Overcast Overcast  
Wind Chill: 36°   Ceiling: 9000
Heat Index: 39°   Visibility: 10mi
Dew Point: 25°   Wind: 5mph
Humidity: 56%   Direction: 120°ESE
Pressure: 29.86"   Gusts: NA
Location:  44.16°N, 108.87°W
Report Text: KCOD 202135Z AUTO 12004KT 10SM SCT075 OVC090 04/M04 A2986 RMK AO1
Loading
Personal Weather Stations






























Interactive Weather Map New forecast layout! Learn more

10-Day Weather Forecast

Advertisements
Track Severe Weather on mobile